sensor_id;sensor_type;location;lat;lon;timestamp;temperature;humidity
24262;DHT22;12385;51.412;5.540;2023-02-28T00:00:45;1.00;99.90
24262;DHT22;12385;51.412;5.540;2023-02-28T00:03:11;0.90;99.90
24262;DHT22;12385;51.412;5.540;2023-02-28T00:05:37;0.90;99.90
24262;DHT22;12385;51.412;5.540;2023-02-28T00:08:03;0.90;99.90
24262;DHT22;12385;51.412;5.540;2023-02-28T00:10:30;0.90;99.90
24262;DHT22;12385;51.412;5.540;2023-02-28T00:13:02;0.90;99.90
24262;DHT22;12385;51.412;5.540;2023-02-28T00:15:28;0.90;99.90
24262;DHT22;12385;51.412;5.540;2023-02-28T00:17:54;0.90;99.90
24262;DHT22;12385;51.412;5.540;2023-02-28T00:20:20;0.80;99.90
24262;DHT22;12385;51.412;5.540;2023-02-28T00:22:49;0.80;99.90
24262;DHT22;12385;51.412;5.540;2023-02-28T00:25:17;0.80;99.90
24262;DHT22;12385;51.412;5.540;2023-02-28T00:27:44;0.80;99.90
24262;DHT22;12385;51.412;5.540;2023-02-28T00:30:12;0.80;99.90
24262;DHT22;12385;51.412;5.540;2023-02-28T00:32:39;0.80;99.90
24262;DHT22;12385;51.412;5.540;2023-02-28T00:35:05;0.80;99.90
24262;DHT22;12385;51.412;5.540;2023-02-28T00:37:31;0.80;99.90
24262;DHT22;12385;51.412;5.540;2023-02-28T00:39:57;0.70;99.90
24262;DHT22;12385;51.412;5.540;2023-02-28T00:42:23;0.70;99.90
24262;DHT22;12385;51.412;5.540;2023-02-28T00:44:49;0.70;99.90
24262;DHT22;12385;51.412;5.540;2023-02-28T00:47:15;0.70;99.90
24262;DHT22;12385;51.412;5.540;2023-02-28T00:49:41;0.70;99.90
24262;DHT22;12385;51.412;5.540;2023-02-28T00:52:07;0.60;99.90
24262;DHT22;12385;51.412;5.540;2023-02-28T00:54:33;0.60;99.90
24262;DHT22;12385;51.412;5.540;2023-02-28T00:56:59;0.60;99.90
24262;DHT22;12385;51.412;5.540;2023-02-28T00:59:25;0.60;99.90
24262;DHT22;12385;51.412;5.540;2023-02-28T01:01:51;0.60;99.90
24262;DHT22;12385;51.412;5.540;2023-02-28T01:04:17;0.60;99.90
24262;DHT22;12385;51.412;5.540;2023-02-28T01:06:43;0.50;99.90
24262;DHT22;12385;51.412;5.540;2023-02-28T01:09:10;0.50;99.90
24262;DHT22;12385;51.412;5.540;2023-02-28T01:11:37;0.50;99.90
24262;DHT22;12385;51.412;5.540;2023-02-28T01:14:03;0.50;99.90
24262;DHT22;12385;51.412;5.540;2023-02-28T01:16:29;0.50;99.90
24262;DHT22;12385;51.412;5.540;2023-02-28T01:18:55;0.50;99.90
24262;DHT22;12385;51.412;5.540;2023-02-28T01:21:21;0.50;99.90
24262;DHT22;12385;51.412;5.540;2023-02-28T01:23:48;0.40;99.90
24262;DHT22;12385;51.412;5.540;2023-02-28T01:26:18;0.40;99.90
24262;DHT22;12385;51.412;5.540;2023-02-28T01:28:44;0.40;99.90
24262;DHT22;12385;51.412;5.540;2023-02-28T01:31:10;0.40;99.90
24262;DHT22;12385;51.412;5.540;2023-02-28T01:33:36;0.40;99.90
24262;DHT22;12385;51.412;5.540;2023-02-28T01:36:08;0.30;99.90
24262;DHT22;12385;51.412;5.540;2023-02-28T01:38:34;0.30;99.90
24262;DHT22;12385;51.412;5.540;2023-02-28T01:41:00;0.30;99.90
24262;DHT22;12385;51.412;5.540;2023-02-28T01:46:15;0.30;99.90
24262;DHT22;12385;51.412;5.540;2023-02-28T01:48:51;0.20;99.90
24262;DHT22;12385;51.412;5.540;2023-02-28T01:51:26;0.20;99.90
24262;DHT22;12385;51.412;5.540;2023-02-28T01:54:00;0.20;99.90
24262;DHT22;12385;51.412;5.540;2023-02-28T01:56:30;0.20;99.90
24262;DHT22;12385;51.412;5.540;2023-02-28T01:58:58;0.20;99.90
24262;DHT22;12385;51.412;5.540;2023-02-28T02:01:26;0.20;99.90
24262;DHT22;12385;51.412;5.540;2023-02-28T02:03:57;0.20;99.90
24262;DHT22;12385;51.412;5.540;2023-02-28T02:06:35;0.20;99.90
24262;DHT22;12385;51.412;5.540;2023-02-28T02:09:02;0.10;99.90
24262;DHT22;12385;51.412;5.540;2023-02-28T02:11:28;0.10;99.90
24262;DHT22;12385;51.412;5.540;2023-02-28T02:14:22;0.00;99.90
24262;DHT22;12385;51.412;5.540;2023-02-28T02:25:45;-0.20;99.90
24262;DHT22;12385;51.412;5.540;2023-02-28T02:31:06;-0.30;99.90
24262;DHT22;12385;51.412;5.540;2023-02-28T02:36:51;-0.30;99.90
24262;DHT22;12385;51.412;5.540;2023-02-28T02:39:28;-0.40;99.90
24262;DHT22;12385;51.412;5.540;2023-02-28T02:42:00;-0.40;99.90
24262;DHT22;12385;51.412;5.540;2023-02-28T02:44:27;-0.40;99.90
24262;DHT22;12385;51.412;5.540;2023-02-28T02:47:05;-0.40;99.90
24262;DHT22;12385;51.412;5.540;2023-02-28T02:49:33;-0.40;99.90
24262;DHT22;12385;51.412;5.540;2023-02-28T02:52:04;-0.40;99.90
24262;DHT22;12385;51.412;5.540;2023-02-28T02:54:36;-0.50;99.90
24262;DHT22;12385;51.412;5.540;2023-02-28T02:57:12;-0.50;99.90
24262;DHT22;12385;51.412;5.540;2023-02-28T02:59:40;-0.50;99.90
24262;DHT22;12385;51.412;5.540;2023-02-28T03:02:11;-0.60;99.90
24262;DHT22;12385;51.412;5.540;2023-02-28T03:04:45;-0.60;99.90
24262;DHT22;12385;51.412;5.540;2023-02-28T03:07:11;-0.70;99.90
24262;DHT22;12385;51.412;5.540;2023-02-28T03:09:37;-0.70;99.90
24262;DHT22;12385;51.412;5.540;2023-02-28T03:12:03;-0.70;99.90
24262;DHT22;12385;51.412;5.540;2023-02-28T03:15:21;-0.70;99.90
24262;DHT22;12385;51.412;5.540;2023-02-28T03:18:04;-0.70;99.90
24262;DHT22;12385;51.412;5.540;2023-02-28T03:20:39;-0.80;99.90
24262;DHT22;12385;51.412;5.540;2023-02-28T03:23:15;-0.70;99.90
24262;DHT22;12385;51.412;5.540;2023-02-28T03:28:26;-0.70;99.90
24262;DHT22;12385;51.412;5.540;2023-02-28T03:31:06;-0.60;99.90
24262;DHT22;12385;51.412;5.540;2023-02-28T03:33:45;-0.60;99.90
24262;DHT22;12385;51.412;5.540;2023-02-28T03:36:25;-0.50;99.90
24262;DHT22;12385;51.412;5.540;2023-02-28T03:38:58;-0.50;99.90
24262;DHT22;12385;51.412;5.540;2023-02-28T03:41:35;-0.50;99.90
24262;DHT22;12385;51.412;5.540;2023-02-28T03:44:13;-0.40;99.90
24262;DHT22;12385;51.412;5.540;2023-02-28T03:46:48;-0.40;99.90
24262;DHT22;12385;51.412;5.540;2023-02-28T03:49:19;-0.30;99.90
24262;DHT22;12385;51.412;5.540;2023-02-28T03:51:47;-0.20;99.90
24262;DHT22;12385;51.412;5.540;2023-02-28T03:54:18;-0.20;99.90
24262;DHT22;12385;51.412;5.540;2023-02-28T03:56:47;-0.10;99.90
24262;DHT22;12385;51.412;5.540;2023-02-28T03:59:28;0.00;99.90
24262;DHT22;12385;51.412;5.540;2023-02-28T04:01:57;0.10;99.90
24262;DHT22;12385;51.412;5.540;2023-02-28T04:04:24;0.20;99.90
24262;DHT22;12385;51.412;5.540;2023-02-28T04:06:51;0.30;99.90
24262;DHT22;12385;51.412;5.540;2023-02-28T04:09:18;0.40;99.90
24262;DHT22;12385;51.412;5.540;2023-02-28T04:11:51;0.50;99.90
24262;DHT22;12385;51.412;5.540;2023-02-28T04:14:17;0.50;99.90
24262;DHT22;12385;51.412;5.540;2023-02-28T04:16:44;0.60;99.90
24262;DHT22;12385;51.412;5.540;2023-02-28T04:19:11;0.60;99.90
24262;DHT22;12385;51.412;5.540;2023-02-28T04:21:49;0.70;99.90
24262;DHT22;12385;51.412;5.540;2023-02-28T04:24:17;0.70;99.90
24262;DHT22;12385;51.412;5.540;2023-02-28T04:26:46;0.80;99.90
24262;DHT22;12385;51.412;5.540;2023-02-28T04:29:17;0.80;99.90
24262;DHT22;12385;51.412;5.540;2023-02-28T04:31:43;0.80;99.90
24262;DHT22;12385;51.412;5.540;2023-02-28T04:34:09;0.80;99.90
24262;DHT22;12385;51.412;5.540;2023-02-28T04:36:35;0.90;99.90
24262;DHT22;12385;51.412;5.540;2023-02-28T04:39:01;0.90;99.90
24262;DHT22;12385;51.412;5.540;2023-02-28T04:41:27;0.90;99.90
24262;DHT22;12385;51.412;5.540;2023-02-28T04:43:52;0.90;99.90
24262;DHT22;12385;51.412;5.540;2023-02-28T04:46:19;0.90;99.90
24262;DHT22;12385;51.412;5.540;2023-02-28T04:48:45;0.90;99.90
24262;DHT22;12385;51.412;5.540;2023-02-28T04:51:14;1.00;99.90
24262;DHT22;12385;51.412;5.540;2023-02-28T04:53:41;1.00;99.90
24262;DHT22;12385;51.412;5.540;2023-02-28T04:56:09;1.00;99.90
24262;DHT22;12385;51.412;5.540;2023-02-28T04:58:35;1.00;99.90
24262;DHT22;12385;51.412;5.540;2023-02-28T05:01:21;1.00;99.90
24262;DHT22;12385;51.412;5.540;2023-02-28T05:03:47;1.00;99.90
24262;DHT22;12385;51.412;5.540;2023-02-28T05:06:13;1.00;99.90
24262;DHT22;12385;51.412;5.540;2023-02-28T05:08:40;1.00;99.90
24262;DHT22;12385;51.412;5.540;2023-02-28T05:11:20;1.00;99.90
24262;DHT22;12385;51.412;5.540;2023-02-28T05:13:47;1.00;99.90
24262;DHT22;12385;51.412;5.540;2023-02-28T05:16:14;1.00;99.90
24262;DHT22;12385;51.412;5.540;2023-02-28T05:18:40;1.00;99.90
24262;DHT22;12385;51.412;5.540;2023-02-28T05:21:06;0.90;99.90
24262;DHT22;12385;51.412;5.540;2023-02-28T05:23:43;0.90;99.90
24262;DHT22;12385;51.412;5.540;2023-02-28T05:26:08;0.90;99.90
24262;DHT22;12385;51.412;5.540;2023-02-28T05:28:34;0.90;99.90
24262;DHT22;12385;51.412;5.540;2023-02-28T05:30:59;0.90;99.90
24262;DHT22;12385;51.412;5.540;2023-02-28T05:33:25;0.90;99.90
24262;DHT22;12385;51.412;5.540;2023-02-28T05:35:51;0.90;99.90
24262;DHT22;12385;51.412;5.540;2023-02-28T05:38:16;0.90;99.90
24262;DHT22;12385;51.412;5.540;2023-02-28T05:40:43;0.90;99.90
24262;DHT22;12385;51.412;5.540;2023-02-28T05:43:10;0.90;99.90
24262;DHT22;12385;51.412;5.540;2023-02-28T05:45:36;0.90;99.90
24262;DHT22;12385;51.412;5.540;2023-02-28T05:48:01;0.80;99.90
24262;DHT22;12385;51.412;5.540;2023-02-28T05:50:27;0.90;99.90
24262;DHT22;12385;51.412;5.540;2023-02-28T05:52:53;0.90;99.90
24262;DHT22;12385;51.412;5.540;2023-02-28T05:55:18;0.90;99.90
24262;DHT22;12385;51.412;5.540;2023-02-28T05:57:44;0.80;99.90
24262;DHT22;12385;51.412;5.540;2023-02-28T06:00:10;0.80;99.90
24262;DHT22;12385;51.412;5.540;2023-02-28T06:02:38;0.80;99.90
24262;DHT22;12385;51.412;5.540;2023-02-28T06:05:04;0.80;99.90
24262;DHT22;12385;51.412;5.540;2023-02-28T06:07:30;0.70;99.90
24262;DHT22;12385;51.412;5.540;2023-02-28T06:09:55;0.60;99.90
24262;DHT22;12385;51.412;5.540;2023-02-28T06:12:21;0.60;99.90
24262;DHT22;12385;51.412;5.540;2023-02-28T06:14:47;0.60;99.90
24262;DHT22;12385;51.412;5.540;2023-02-28T06:17:12;0.60;99.90
24262;DHT22;12385;51.412;5.540;2023-02-28T06:19:38;0.50;99.90
24262;DHT22;12385;51.412;5.540;2023-02-28T06:22:05;0.50;99.90
24262;DHT22;12385;51.412;5.540;2023-02-28T06:24:31;0.50;99.90
24262;DHT22;12385;51.412;5.540;2023-02-28T06:26:57;0.50;99.90
24262;DHT22;12385;51.412;5.540;2023-02-28T06:29:24;0.50;99.90
24262;DHT22;12385;51.412;5.540;2023-02-28T06:31:50;0.50;99.90
24262;DHT22;12385;51.412;5.540;2023-02-28T06:34:16;0.50;99.90
24262;DHT22;12385;51.412;5.540;2023-02-28T06:36:42;0.50;99.90
24262;DHT22;12385;51.412;5.540;2023-02-28T06:39:09;0.50;99.90
24262;DHT22;12385;51.412;5.540;2023-02-28T06:41:35;0.50;99.90
24262;DHT22;12385;51.412;5.540;2023-02-28T06:44:04;0.50;99.90
24262;DHT22;12385;51.412;5.540;2023-02-28T06:46:31;0.50;99.90
24262;DHT22;12385;51.412;5.540;2023-02-28T06:48:57;0.50;99.90
24262;DHT22;12385;51.412;5.540;2023-02-28T06:51:22;0.60;99.90
24262;DHT22;12385;51.412;5.540;2023-02-28T06:53:49;0.60;99.90
24262;DHT22;12385;51.412;5.540;2023-02-28T06:56:16;0.60;99.90
24262;DHT22;12385;51.412;5.540;2023-02-28T06:58:49;0.60;99.90
24262;DHT22;12385;51.412;5.540;2023-02-28T07:01:15;0.60;99.90
24262;DHT22;12385;51.412;5.540;2023-02-28T07:03:42;0.50;99.90
24262;DHT22;12385;51.412;5.540;2023-02-28T07:06:08;0.60;99.90
24262;DHT22;12385;51.412;5.540;2023-02-28T07:08:34;0.60;99.90
24262;DHT22;12385;51.412;5.540;2023-02-28T07:11:01;0.60;99.90
24262;DHT22;12385;51.412;5.540;2023-02-28T07:13:27;0.60;99.90
24262;DHT22;12385;51.412;5.540;2023-02-28T07:16:00;0.60;99.90
24262;DHT22;12385;51.412;5.540;2023-02-28T07:18:27;0.60;99.90
24262;DHT22;12385;51.412;5.540;2023-02-28T07:20:53;0.60;99.90
24262;DHT22;12385;51.412;5.540;2023-02-28T07:23:19;0.70;99.90
24262;DHT22;12385;51.412;5.540;2023-02-28T07:25:45;0.80;99.90
24262;DHT22;12385;51.412;5.540;2023-02-28T07:28:11;0.80;99.90
24262;DHT22;12385;51.412;5.540;2023-02-28T07:30:37;0.90;99.90
24262;DHT22;12385;51.412;5.540;2023-02-28T07:33:03;1.00;99.90
24262;DHT22;12385;51.412;5.540;2023-02-28T07:35:29;1.00;99.90
24262;DHT22;12385;51.412;5.540;2023-02-28T07:37:57;1.10;99.90
24262;DHT22;12385;51.412;5.540;2023-02-28T07:40:23;1.20;99.90
24262;DHT22;12385;51.412;5.540;2023-02-28T07:42:49;1.20;99.90
24262;DHT22;12385;51.412;5.540;2023-02-28T07:45:14;1.20;99.90
24262;DHT22;12385;51.412;5.540;2023-02-28T07:47:41;1.20;99.90
24262;DHT22;12385;51.412;5.540;2023-02-28T07:50:09;1.20;99.90
24262;DHT22;12385;51.412;5.540;2023-02-28T07:52:36;1.20;99.90
24262;DHT22;12385;51.412;5.540;2023-02-28T07:55:03;1.20;99.90
24262;DHT22;12385;51.412;5.540;2023-02-28T07:57:29;1.30;99.90
24262;DHT22;12385;51.412;5.540;2023-02-28T07:59:55;1.30;99.90
24262;DHT22;12385;51.412;5.540;2023-02-28T08:02:21;1.30;99.90
24262;DHT22;12385;51.412;5.540;2023-02-28T08:04:48;1.40;99.90
24262;DHT22;12385;51.412;5.540;2023-02-28T08:07:15;1.40;99.90
24262;DHT22;12385;51.412;5.540;2023-02-28T08:09:41;1.50;99.90
24262;DHT22;12385;51.412;5.540;2023-02-28T08:12:09;1.50;99.90
24262;DHT22;12385;51.412;5.540;2023-02-28T08:14:35;1.60;99.90
24262;DHT22;12385;51.412;5.540;2023-02-28T08:17:01;1.60;99.90
24262;DHT22;12385;51.412;5.540;2023-02-28T08:19:26;1.60;99.90
24262;DHT22;12385;51.412;5.540;2023-02-28T08:21:55;1.60;99.90
24262;DHT22;12385;51.412;5.540;2023-02-28T08:24:21;1.60;99.90
24262;DHT22;12385;51.412;5.540;2023-02-28T08:26:47;1.70;99.90
24262;DHT22;12385;51.412;5.540;2023-02-28T08:29:12;1.70;99.90
24262;DHT22;12385;51.412;5.540;2023-02-28T08:31:38;1.70;99.90
24262;DHT22;12385;51.412;5.540;2023-02-28T08:34:12;1.70;99.90
24262;DHT22;12385;51.412;5.540;2023-02-28T08:36:38;1.70;99.90
24262;DHT22;12385;51.412;5.540;2023-02-28T08:39:05;1.80;99.90
24262;DHT22;12385;51.412;5.540;2023-02-28T08:41:31;1.80;99.90
24262;DHT22;12385;51.412;5.540;2023-02-28T08:43:57;1.80;99.90
24262;DHT22;12385;51.412;5.540;2023-02-28T08:46:23;1.80;99.90
24262;DHT22;12385;51.412;5.540;2023-02-28T08:48:52;1.80;99.90
24262;DHT22;12385;51.412;5.540;2023-02-28T08:51:19;1.90;99.90
24262;DHT22;12385;51.412;5.540;2023-02-28T08:53:58;1.90;99.90
24262;DHT22;12385;51.412;5.540;2023-02-28T08:56:26;1.90;99.90
24262;DHT22;12385;51.412;5.540;2023-02-28T08:58:54;1.90;99.90
24262;DHT22;12385;51.412;5.540;2023-02-28T09:01:23;1.90;99.90
24262;DHT22;12385;51.412;5.540;2023-02-28T09:03:50;2.00;99.90
24262;DHT22;12385;51.412;5.540;2023-02-28T09:06:17;2.00;99.90
24262;DHT22;12385;51.412;5.540;2023-02-28T09:08:43;2.00;99.90
24262;DHT22;12385;51.412;5.540;2023-02-28T09:11:09;2.10;99.90
24262;DHT22;12385;51.412;5.540;2023-02-28T09:13:35;2.10;99.90
24262;DHT22;12385;51.412;5.540;2023-02-28T09:16:04;2.10;99.90
24262;DHT22;12385;51.412;5.540;2023-02-28T09:18:30;2.20;99.90
24262;DHT22;12385;51.412;5.540;2023-02-28T09:20:56;2.20;99.90
24262;DHT22;12385;51.412;5.540;2023-02-28T09:23:23;2.20;99.90
24262;DHT22;12385;51.412;5.540;2023-02-28T09:25:53;2.20;99.90
24262;DHT22;12385;51.412;5.540;2023-02-28T09:28:20;2.30;99.90
24262;DHT22;12385;51.412;5.540;2023-02-28T09:30:48;2.30;99.90
24262;DHT22;12385;51.412;5.540;2023-02-28T09:33:15;2.40;99.90
24262;DHT22;12385;51.412;5.540;2023-02-28T09:35:41;2.40;99.90
24262;DHT22;12385;51.412;5.540;2023-02-28T09:38:09;2.50;99.90
24262;DHT22;12385;51.412;5.540;2023-02-28T09:40:44;2.50;99.90
24262;DHT22;12385;51.412;5.540;2023-02-28T09:43:14;2.60;99.90
24262;DHT22;12385;51.412;5.540;2023-02-28T09:45:42;2.70;99.90
24262;DHT22;12385;51.412;5.540;2023-02-28T09:48:18;2.70;99.90
24262;DHT22;12385;51.412;5.540;2023-02-28T09:51:00;2.70;99.90
24262;DHT22;12385;51.412;5.540;2023-02-28T09:53:33;2.70;99.90
24262;DHT22;12385;51.412;5.540;2023-02-28T09:56:03;2.80;99.90
24262;DHT22;12385;51.412;5.540;2023-02-28T09:59:29;2.90;99.90
24262;DHT22;12385;51.412;5.540;2023-02-28T10:02:01;2.90;99.90
24262;DHT22;12385;51.412;5.540;2023-02-28T10:04:52;2.90;99.90
24262;DHT22;12385;51.412;5.540;2023-02-28T10:13:12;3.00;99.90
24262;DHT22;12385;51.412;5.540;2023-02-28T10:15:39;3.00;99.90
24262;DHT22;12385;51.412;5.540;2023-02-28T10:18:08;3.00;99.90
24262;DHT22;12385;51.412;5.540;2023-02-28T10:20:39;3.10;99.90
24262;DHT22;12385;51.412;5.540;2023-02-28T10:25:38;3.20;99.90
24262;DHT22;12385;51.412;5.540;2023-02-28T10:28:14;3.20;99.90
24262;DHT22;12385;51.412;5.540;2023-02-28T10:30:43;3.20;99.90
24262;DHT22;12385;51.412;5.540;2023-02-28T10:33:31;3.20;99.90
24262;DHT22;12385;51.412;5.540;2023-02-28T10:35:57;3.30;99.90
24262;DHT22;12385;51.412;5.540;2023-02-28T10:38:31;3.30;99.70
24262;DHT22;12385;51.412;5.540;2023-02-28T10:41:09;3.40;99.60
24262;DHT22;12385;51.412;5.540;2023-02-28T10:43:36;3.40;99.20
24262;DHT22;12385;51.412;5.540;2023-02-28T10:48:41;3.50;98.50
24262;DHT22;12385;51.412;5.540;2023-02-28T10:51:11;3.50;98.10
24262;DHT22;12385;51.412;5.540;2023-02-28T10:53:58;3.50;97.90
24262;DHT22;12385;51.412;5.540;2023-02-28T10:56:24;3.60;97.80
24262;DHT22;12385;51.412;5.540;2023-02-28T11:01:45;3.70;97.30
24262;DHT22;12385;51.412;5.540;2023-02-28T11:04:40;3.70;97.10
24262;DHT22;12385;51.412;5.540;2023-02-28T11:07:18;3.80;97.00
24262;DHT22;12385;51.412;5.540;2023-02-28T11:09:50;3.90;96.80
24262;DHT22;12385;51.412;5.540;2023-02-28T11:12:29;3.90;96.50
24262;DHT22;12385;51.412;5.540;2023-02-28T11:15:01;3.90;96.40
24262;DHT22;12385;51.412;5.540;2023-02-28T11:17:31;4.00;96.40
24262;DHT22;12385;51.412;5.540;2023-02-28T11:20:10;4.10;96.20
24262;DHT22;12385;51.412;5.540;2023-02-28T11:22:45;4.10;96.10
24262;DHT22;12385;51.412;5.540;2023-02-28T11:25:22;4.10;96.00
24262;DHT22;12385;51.412;5.540;2023-02-28T11:27:50;4.20;95.70
24262;DHT22;12385;51.412;5.540;2023-02-28T11:30:45;4.20;95.50
24262;DHT22;12385;51.412;5.540;2023-02-28T11:36:04;4.30;95.40
24262;DHT22;12385;51.412;5.540;2023-02-28T11:38:35;4.40;95.20
24262;DHT22;12385;51.412;5.540;2023-02-28T11:41:18;4.40;94.90
24262;DHT22;12385;51.412;5.540;2023-02-28T11:44:05;4.40;94.80
24262;DHT22;12385;51.412;5.540;2023-02-28T11:52:40;4.50;94.60
24262;DHT22;12385;51.412;5.540;2023-02-28T11:55:40;4.60;94.50
24262;DHT22;12385;51.412;5.540;2023-02-28T12:04:26;4.70;94.20
24262;DHT22;12385;51.412;5.540;2023-02-28T12:07:09;4.80;94.10
24262;DHT22;12385;51.412;5.540;2023-02-28T12:15:43;5.00;93.60
24262;DHT22;12385;51.412;5.540;2023-02-28T12:18:37;5.00;93.50
24262;DHT22;12385;51.412;5.540;2023-02-28T12:21:15;5.10;93.60
24262;DHT22;12385;51.412;5.540;2023-02-28T12:26:46;5.40;93.10
24262;DHT22;12385;51.412;5.540;2023-02-28T12:32:20;5.60;92.40
24262;DHT22;12385;51.412;5.540;2023-02-28T12:34:58;5.60;92.20
24262;DHT22;12385;51.412;5.540;2023-02-28T12:37:36;5.70;91.90
24262;DHT22;12385;51.412;5.540;2023-02-28T12:40:11;5.80;91.80
24262;DHT22;12385;51.412;5.540;2023-02-28T12:42:40;5.90;91.70
24262;DHT22;12385;51.412;5.540;2023-02-28T12:45:17;6.00;91.60
24262;DHT22;12385;51.412;5.540;2023-02-28T12:47:45;6.00;91.30
24262;DHT22;12385;51.412;5.540;2023-02-28T12:50:12;6.20;91.20
24262;DHT22;12385;51.412;5.540;2023-02-28T12:52:53;6.20;90.90
24262;DHT22;12385;51.412;5.540;2023-02-28T12:58:23;6.40;90.40
24262;DHT22;12385;51.412;5.540;2023-02-28T13:08:59;6.80;88.20
24262;DHT22;12385;51.412;5.540;2023-02-28T13:11:44;6.80;87.70
24262;DHT22;12385;51.412;5.540;2023-02-28T13:19:58;7.20;86.90
24262;DHT22;12385;51.412;5.540;2023-02-28T13:22:40;7.30;86.20
24262;DHT22;12385;51.412;5.540;2023-02-28T13:27:49;7.50;84.50
24262;DHT22;12385;51.412;5.540;2023-02-28T13:38:54;8.10;81.80
24262;DHT22;12385;51.412;5.540;2023-02-28T13:44:03;8.20;80.00
24262;DHT22;12385;51.412;5.540;2023-02-28T13:46:30;8.40;79.30
24262;DHT22;12385;51.412;5.540;2023-02-28T13:48:55;8.50;78.70
24262;DHT22;12385;51.412;5.540;2023-02-28T13:51:41;8.50;77.80
24262;DHT22;12385;51.412;5.540;2023-02-28T14:09:27;10.20;74.20
24262;DHT22;12385;51.412;5.540;2023-02-28T14:11:54;10.60;72.50
24262;DHT22;12385;51.412;5.540;2023-02-28T14:17:08;11.30;69.60
24262;DHT22;12385;51.412;5.540;2023-02-28T14:19:39;11.50;68.40
24262;DHT22;12385;51.412;5.540;2023-02-28T14:33:41;12.10;61.40
24262;DHT22;12385;51.412;5.540;2023-02-28T14:36:07;12.10;61.40
24262;DHT22;12385;51.412;5.540;2023-02-28T14:39:01;12.20;60.20
24262;DHT22;12385;51.412;5.540;2023-02-28T14:41:35;12.60;59.30
24262;DHT22;12385;51.412;5.540;2023-02-28T14:44:13;12.80;58.60
24262;DHT22;12385;51.412;5.540;2023-02-28T14:46:40;13.00;57.60
24262;DHT22;12385;51.412;5.540;2023-02-28T14:49:35;13.10;56.60
24262;DHT22;12385;51.412;5.540;2023-02-28T14:54:45;13.40;55.00
24262;DHT22;12385;51.412;5.540;2023-02-28T14:57:32;13.50;54.50
24262;DHT22;12385;51.412;5.540;2023-02-28T15:02:49;13.50;53.00
24262;DHT22;12385;51.412;5.540;2023-02-28T15:07:44;13.70;52.10
24262;DHT22;12385;51.412;5.540;2023-02-28T15:10:22;13.60;51.50
24262;DHT22;12385;51.412;5.540;2023-02-28T15:12:54;13.50;51.20
24262;DHT22;12385;51.412;5.540;2023-02-28T15:15:23;13.70;51.20
24262;DHT22;12385;51.412;5.540;2023-02-28T15:17:53;13.70;50.60
24262;DHT22;12385;51.412;5.540;2023-02-28T15:20:21;13.60;49.90
24262;DHT22;12385;51.412;5.540;2023-02-28T15:22:49;13.50;50.10
24262;DHT22;12385;51.412;5.540;2023-02-28T15:25:19;13.60;49.70
24262;DHT22;12385;51.412;5.540;2023-02-28T15:27:48;13.50;49.80
24262;DHT22;12385;51.412;5.540;2023-02-28T15:30:18;13.60;49.70
24262;DHT22;12385;51.412;5.540;2023-02-28T15:32:45;13.60;49.10
24262;DHT22;12385;51.412;5.540;2023-02-28T15:35:30;13.40;48.70
24262;DHT22;12385;51.412;5.540;2023-02-28T15:38:16;13.40;48.70
24262;DHT22;12385;51.412;5.540;2023-02-28T15:41:04;13.30;48.70
24262;DHT22;12385;51.412;5.540;2023-02-28T15:43:37;13.20;48.40
24262;DHT22;12385;51.412;5.540;2023-02-28T15:46:08;12.90;48.50
24262;DHT22;12385;51.412;5.540;2023-02-28T15:48:54;12.70;48.60
24262;DHT22;12385;51.412;5.540;2023-02-28T15:51:40;12.40;48.20
24262;DHT22;12385;51.412;5.540;2023-02-28T15:54:08;12.00;49.10
24262;DHT22;12385;51.412;5.540;2023-02-28T15:56:47;11.80;49.80
24262;DHT22;12385;51.412;5.540;2023-02-28T15:59:19;11.60;49.60
24262;DHT22;12385;51.412;5.540;2023-02-28T16:01:45;11.30;50.00
24262;DHT22;12385;51.412;5.540;2023-02-28T16:04:14;11.10;50.50
24262;DHT22;12385;51.412;5.540;2023-02-28T16:06:42;10.90;50.80
24262;DHT22;12385;51.412;5.540;2023-02-28T16:09:16;10.70;51.00
24262;DHT22;12385;51.412;5.540;2023-02-28T16:11:50;10.60;51.20
24262;DHT22;12385;51.412;5.540;2023-02-28T16:14:23;10.50;51.50
24262;DHT22;12385;51.412;5.540;2023-02-28T16:16:53;10.40;51.60
24262;DHT22;12385;51.412;5.540;2023-02-28T16:19:19;10.00;51.80
24262;DHT22;12385;51.412;5.540;2023-02-28T16:21:45;9.70;52.50
24262;DHT22;12385;51.412;5.540;2023-02-28T16:24:11;9.40;53.10
24262;DHT22;12385;51.412;5.540;2023-02-28T16:26:39;9.20;53.60
24262;DHT22;12385;51.412;5.540;2023-02-28T16:29:06;9.00;54.00
24262;DHT22;12385;51.412;5.540;2023-02-28T16:31:37;8.90;54.40
24262;DHT22;12385;51.412;5.540;2023-02-28T16:34:04;8.70;54.70
24262;DHT22;12385;51.412;5.540;2023-02-28T16:36:30;8.60;55.20
24262;DHT22;12385;51.412;5.540;2023-02-28T16:38:56;8.50;55.60
24262;DHT22;12385;51.412;5.540;2023-02-28T16:41:24;8.40;56.10
24262;DHT22;12385;51.412;5.540;2023-02-28T16:43:53;8.40;56.20
24262;DHT22;12385;51.412;5.540;2023-02-28T16:46:20;8.20;56.30
24262;DHT22;12385;51.412;5.540;2023-02-28T16:48:46;8.10;56.70
24262;DHT22;12385;51.412;5.540;2023-02-28T16:51:16;8.00;57.10
24262;DHT22;12385;51.412;5.540;2023-02-28T16:53:43;7.90;57.30
24262;DHT22;12385;51.412;5.540;2023-02-28T16:56:21;7.70;57.70
24262;DHT22;12385;51.412;5.540;2023-02-28T16:58:48;7.60;57.90
24262;DHT22;12385;51.412;5.540;2023-02-28T17:01:15;7.50;58.40
24262;DHT22;12385;51.412;5.540;2023-02-28T17:03:41;7.50;58.60
24262;DHT22;12385;51.412;5.540;2023-02-28T17:06:25;7.40;58.90
24262;DHT22;12385;51.412;5.540;2023-02-28T17:08:53;7.30;59.10
24262;DHT22;12385;51.412;5.540;2023-02-28T17:11:19;7.20;59.40
24262;DHT22;12385;51.412;5.540;2023-02-28T17:13:46;7.20;59.80
24262;DHT22;12385;51.412;5.540;2023-02-28T17:16:22;7.10;59.90
24262;DHT22;12385;51.412;5.540;2023-02-28T17:18:50;7.10;60.20
24262;DHT22;12385;51.412;5.540;2023-02-28T17:21:16;7.00;60.60
24262;DHT22;12385;51.412;5.540;2023-02-28T17:23:42;6.90;61.10
24262;DHT22;12385;51.412;5.540;2023-02-28T17:26:16;6.80;61.50
24262;DHT22;12385;51.412;5.540;2023-02-28T17:28:45;6.80;61.80
24262;DHT22;12385;51.412;5.540;2023-02-28T17:31:11;6.80;62.10
24262;DHT22;12385;51.412;5.540;2023-02-28T17:33:36;6.70;62.30
24262;DHT22;12385;51.412;5.540;2023-02-28T17:36:02;6.70;62.70
24262;DHT22;12385;51.412;5.540;2023-02-28T17:38:28;6.60;63.20
24262;DHT22;12385;51.412;5.540;2023-02-28T17:40:54;6.60;63.60
24262;DHT22;12385;51.412;5.540;2023-02-28T17:43:26;6.50;64.00
24262;DHT22;12385;51.412;5.540;2023-02-28T17:45:52;6.50;64.40
24262;DHT22;12385;51.412;5.540;2023-02-28T17:48:19;6.40;64.00
24262;DHT22;12385;51.412;5.540;2023-02-28T17:50:45;6.40;64.70
24262;DHT22;12385;51.412;5.540;2023-02-28T17:53:11;6.30;65.20
24262;DHT22;12385;51.412;5.540;2023-02-28T17:55:36;6.30;65.60
24262;DHT22;12385;51.412;5.540;2023-02-28T17:58:03;6.20;65.80
24262;DHT22;12385;51.412;5.540;2023-02-28T18:00:29;6.20;66.20
24262;DHT22;12385;51.412;5.540;2023-02-28T18:02:55;6.20;66.60
24262;DHT22;12385;51.412;5.540;2023-02-28T18:05:20;6.10;67.10
24262;DHT22;12385;51.412;5.540;2023-02-28T18:07:46;6.00;67.50
24262;DHT22;12385;51.412;5.540;2023-02-28T18:10:16;6.00;68.00